XS83 weather

Methodist Hospital Heliport
San Antonio, Texas, United States

Public forecast

Using degrees Fahrenheit for public forecast. Weather courtesy of forecast.io.

METAR (pilot weather report)

Closest report is San Antonio International Airport, 5.5 nm (10.1 km) ENE. Retrieved 2019/09/23 15:51 UTC (58 minutes ago):

KSAT 231551Z 18006KT 10SM SCT027 SCT250 29/22 A3008 RMK AO2 SLP167 T02890222

TAF (pilot weather forecast)

Closest forecast is San Antonio International Airport, 5.5 nm (10.1 km) ENE. Retrieved 2019/09/23 12:34 UTC (4 hours ago):

TAF KSAT 231131Z 2312/2418 14005KT P6SM SCT012 TEMPO 2312/2314 BKN012 FM231400 16005KT P6SM BKN020 FM231600 16008KT P6SM SCT050 FM241000 16005KT P6SM BKN015 FM241600 16010KT P6SM SCT050